Frederikshavn, Denmark
Current Conditions -  °F | °C
As of 5:50 AM on Monday 20 Oct 2014 (Local Time) from EKYT Reporting Station
Broken Clouds Broken Clouds  
Wind Chill: 55°   Ceiling: 6000
Heat Index: 55°   Visibility: 6mi
Dew Point: 54°   Wind: 15mph
Humidity: 94%   Direction: 250°WSW
Pressure: 29.5"   Gusts: NA
Location:  57.44°N, 10.54°E
Report Text: EKYT 200350Z 25013KT 9999 FEW020CB BKN060 13/12 Q0999
Loading
Personal Weather Stations






























Interactive Weather Map
Tropical Storm Tracking
New forecast layout! Learn more

10-Day Weather Forecast

Advertisements
Track Severe Weather on mobile